createdAt,value
2022-09-06T00:01:00.282Z,100413.31
2022-09-06T00:03:28.325Z,100411.13
2022-09-06T00:05:55.739Z,100407.41
2022-09-06T00:08:23.141Z,100404.47
2022-09-06T00:11:00.936Z,100406.28
2022-09-06T00:13:28.743Z,100411.81
2022-09-06T00:15:56.955Z,100406.03
2022-09-06T00:18:24.475Z,100410.37
2022-09-06T00:20:51.852Z,100399.87
2022-09-06T00:23:19.522Z,100408.16
2022-09-06T00:25:46.867Z,100408.50
2022-09-06T00:28:14.086Z,100412.00
2022-09-06T00:30:41.686Z,100417.28
2022-09-06T00:33:09.058Z,100417.72
2022-09-06T00:35:36.567Z,100424.13
2022-09-06T00:38:04.512Z,100420.94
2022-09-06T00:40:33.014Z,100417.75
2022-09-06T00:43:00.437Z,100413.75
2022-09-06T00:45:28.105Z,100411.91
2022-09-06T00:47:55.356Z,100418.12
2022-09-06T00:50:22.747Z,100411.28
2022-09-06T00:52:50.431Z,100417.28
2022-09-06T00:55:17.878Z,100416.13
2022-09-06T00:57:46.555Z,100408.16
2022-09-06T01:00:16.224Z,100414.72
2022-09-06T01:02:43.744Z,100418.00
2022-09-06T01:05:11.318Z,100412.19
2022-09-06T01:07:38.990Z,100416.50
2022-09-06T01:10:25.430Z,100416.44
2022-09-06T01:13:02.290Z,100422.06
2022-09-06T01:15:44.592Z,100409.97
2022-09-06T01:18:19.987Z,100407.28
2022-09-06T01:20:47.222Z,100407.88
2022-09-06T01:23:23.360Z,100405.72
2022-09-06T01:26:09.613Z,100412.06
2022-09-06T01:28:37.782Z,100397.00
2022-09-06T01:31:05.405Z,100401.06
2022-09-06T01:33:36.112Z,100407.91
2022-09-06T01:36:05.214Z,100404.28
2022-09-06T01:38:32.722Z,100404.50
2022-09-06T01:41:00.013Z,100399.56
2022-09-06T01:43:31.763Z,100404.16
2022-09-06T01:46:05.381Z,100406.00
2022-09-06T01:48:52.272Z,100399.16
2022-09-06T01:51:25.717Z,100403.00
2022-09-06T01:54:05.757Z,100408.16
2022-09-06T01:56:48.454Z,100405.91
2022-09-06T01:59:39.444Z,100398.81
2022-09-06T02:02:14.485Z,100401.19
2022-09-06T02:04:44.370Z,100398.41
2022-09-06T02:07:14.214Z,100391.91
2022-09-06T02:09:41.853Z,100400.13
2022-09-06T02:12:10.084Z,100395.31
2022-09-06T02:14:39.921Z,100395.31
2022-09-06T02:17:08.524Z,100392.75
2022-09-06T02:19:39.665Z,100393.72
2022-09-06T02:22:08.219Z,100396.16
2022-09-06T02:24:37.234Z,100394.69
2022-09-06T02:27:04.656Z,100393.06
2022-09-06T02:29:31.897Z,100391.88
2022-09-06T02:32:01.868Z,100390.06
2022-09-06T02:34:29.373Z,100387.09
2022-09-06T02:36:56.769Z,100391.16
2022-09-06T02:39:24.999Z,100386.13
2022-09-06T02:41:52.251Z,100388.12
2022-09-06T02:44:19.615Z,100389.97
2022-09-06T02:46:47.331Z,100387.81
2022-09-06T02:49:15.656Z,100399.16
2022-09-06T02:51:43.028Z,100386.53
2022-09-06T02:54:10.879Z,100396.16
2022-09-06T02:56:38.294Z,100398.19
2022-09-06T02:59:05.736Z,100396.78
2022-09-06T03:01:33.613Z,100384.34
2022-09-06T03:04:00.984Z,100384.34
2022-09-06T03:06:28.364Z,100379.72
2022-09-06T03:08:56.082Z,100378.47
2022-09-06T03:11:23.459Z,100371.03
2022-09-06T03:13:51.148Z,100381.94
2022-09-06T03:16:19.275Z,100383.44
2022-09-06T03:18:47.039Z,100372.50
2022-09-06T03:21:14.721Z,100377.72
2022-09-06T03:23:42.564Z,100375.06
2022-09-06T03:26:09.886Z,100374.62
2022-09-06T03:28:37.294Z,100380.06
2022-09-06T03:31:05.022Z,100382.28
2022-09-06T03:33:32.753Z,100383.88
2022-09-06T03:36:00.927Z,100384.47
2022-09-06T03:38:29.049Z,100378.81
2022-09-06T03:40:56.665Z,100380.56
2022-09-06T03:43:24.371Z,100385.00
2022-09-06T03:45:53.172Z,100371.97
2022-09-06T03:48:21.508Z,100378.41
2022-09-06T03:50:50.054Z,100377.09
2022-09-06T03:53:19.275Z,100391.88
2022-09-06T03:55:47.439Z,100389.94
2022-09-06T03:58:15.280Z,100388.34
2022-09-06T04:00:42.860Z,100390.56
2022-09-06T04:03:10.772Z,100389.53
2022-09-06T04:05:38.196Z,100395.84
2022-09-06T04:08:06.086Z,100383.72
2022-09-06T04:10:33.979Z,100383.63
2022-09-06T04:13:01.781Z,100378.41
2022-09-06T04:15:29.059Z,100384.81
2022-09-06T04:17:57.229Z,100380.53
2022-09-06T04:20:24.434Z,100378.28
2022-09-06T04:22:51.857Z,100387.81
2022-09-06T04:25:19.352Z,100390.25
2022-09-06T04:27:46.879Z,100381.50
2022-09-06T04:30:14.219Z,100384.62
2022-09-06T04:32:41.884Z,100392.75
2022-09-06T04:35:09.255Z,100396.19
2022-09-06T04:37:36.588Z,100392.34
2022-09-06T04:40:04.304Z,100395.63
2022-09-06T04:42:31.765Z,100394.44
2022-09-06T04:44:59.155Z,100386.53
2022-09-06T04:47:26.754Z,100388.03
2022-09-06T04:49:54.096Z,100388.69
2022-09-06T04:52:21.503Z,100384.69
2022-09-06T04:54:49.021Z,100384.88
2022-09-06T04:57:16.250Z,100386.50
2022-09-06T04:59:43.653Z,100377.31
2022-09-06T05:02:11.419Z,100379.00
2022-09-06T05:04:38.726Z,100375.59
2022-09-06T05:07:07.275Z,100379.00
2022-09-06T05:09:34.931Z,100373.56
2022-09-06T05:12:02.346Z,100379.47
2022-09-06T05:14:29.758Z,100382.84
2022-09-06T05:16:57.440Z,100387.25
2022-09-06T05:19:24.802Z,100387.81
2022-09-06T05:21:52.328Z,100380.97
2022-09-06T05:24:20.127Z,100380.47
2022-09-06T05:26:47.564Z,100380.41
2022-09-06T05:29:14.954Z,100383.34
2022-09-06T05:31:42.797Z,100391.06
2022-09-06T05:34:10.596Z,100379.41
2022-09-06T05:36:38.821Z,100375.31
2022-09-06T05:39:06.332Z,100376.03
2022-09-06T05:41:33.844Z,100374.88
2022-09-06T05:44:01.210Z,100381.56
2022-09-06T05:46:28.707Z,100384.91
2022-09-06T05:48:58.034Z,100380.47
2022-09-06T05:51:25.561Z,100386.53
2022-09-06T05:53:53.224Z,100391.28
2022-09-06T05:56:22.347Z,100377.00
2022-09-06T05:58:49.629Z,100375.44
2022-09-06T06:01:21.708Z,100375.66
2022-09-06T06:03:59.562Z,100382.03
2022-09-06T06:06:27.667Z,100377.94
2022-09-06T06:08:55.628Z,100380.38
2022-09-06T06:11:23.222Z,100379.91
2022-09-06T06:13:50.909Z,100369.13
2022-09-06T06:16:19.240Z,100376.94
2022-09-06T06:18:51.753Z,100382.47
2022-09-06T06:21:21.882Z,100374.75
2022-09-06T06:23:53.548Z,100374.84
2022-09-06T06:26:21.320Z,100376.78
2022-09-06T06:28:49.102Z,100386.53
2022-09-06T06:31:16.473Z,100380.94
2022-09-06T06:33:44.446Z,100375.31
2022-09-06T06:36:14.799Z,100380.94
2022-09-06T06:38:42.682Z,100386.28
2022-09-06T06:41:11.506Z,100378.50
2022-09-06T06:43:38.746Z,100381.72
2022-09-06T06:46:13.673Z,100380.88
2022-09-06T06:48:41.821Z,100387.34
2022-09-06T06:51:12.946Z,100380.25
2022-09-06T06:53:40.329Z,100392.81
2022-09-06T06:56:21.097Z,100394.94
2022-09-06T06:58:49.024Z,100395.44
2022-09-06T07:01:17.218Z,100392.72
2022-09-06T07:03:44.664Z,100403.72
2022-09-06T07:06:12.666Z,100393.72
2022-09-06T07:08:40.890Z,100401.03
2022-09-06T07:11:10.003Z,100401.50
2022-09-06T07:13:37.514Z,100398.53
2022-09-06T07:16:08.833Z,100396.53
2022-09-06T07:18:37.741Z,100394.97
2022-09-06T07:24:09.413Z,100403.88
2022-09-06T07:26:38.544Z,100408.00
2022-09-06T07:29:06.514Z,100414.25
2022-09-06T07:34:22.303Z,100403.69
2022-09-06T07:36:52.163Z,100400.94
2022-09-06T07:39:19.520Z,100400.16
2022-09-06T07:41:47.052Z,100402.38
2022-09-06T07:44:14.313Z,100404.03
2022-09-06T07:46:42.362Z,100398.53
2022-09-06T07:49:10.126Z,100402.84
2022-09-06T07:51:37.550Z,100402.44
2022-09-06T07:56:52.556Z,100400.81
2022-09-06T07:59:19.936Z,100399.34
2022-09-06T08:01:48.263Z,100397.13
2022-09-06T08:04:15.980Z,100408.03
2022-09-06T08:09:33.082Z,100396.19
2022-09-06T08:12:06.982Z,100403.84
2022-09-06T08:14:34.961Z,100398.06
2022-09-06T08:17:02.646Z,100399.09
2022-09-06T08:19:29.893Z,100389.28
2022-09-06T08:21:57.525Z,100389.63
2022-09-06T08:24:24.908Z,100389.50
2022-09-06T08:26:52.353Z,100386.56
2022-09-06T08:29:22.975Z,100380.84
2022-09-06T08:31:50.286Z,100384.50
2022-09-06T08:34:17.729Z,100374.00
2022-09-06T08:36:46.374Z,100384.28
2022-09-06T08:39:13.794Z,100374.75
2022-09-06T08:41:55.749Z,100373.91
2022-09-06T08:47:12.429Z,100371.41
2022-09-06T08:49:41.449Z,100369.31
2022-09-06T08:52:26.360Z,100371.75
2022-09-06T08:54:55.708Z,100377.38
2022-09-06T08:57:22.919Z,100361.28
2022-09-06T08:59:50.131Z,100367.19
2022-09-06T09:02:21.391Z,100371.94
2022-09-06T09:04:51.108Z,100369.31
2022-09-06T09:07:28.123Z,100360.84
2022-09-06T09:09:55.605Z,100353.28
2022-09-06T09:12:23.884Z,100357.75
2022-09-06T09:14:52.638Z,100358.31
2022-09-06T09:17:23.017Z,100351.88
2022-09-06T09:19:50.547Z,100349.06
2022-09-06T09:22:18.498Z,100337.72
2022-09-06T09:24:47.619Z,100339.69
2022-09-06T09:27:17.016Z,100335.28
2022-09-06T09:32:45.176Z,100329.16
2022-09-06T09:35:31.998Z,100316.25
2022-09-06T09:38:07.742Z,100312.56
2022-09-06T09:40:50.614Z,100311.22
2022-09-06T09:43:18.364Z,100312.31
2022-09-06T09:45:45.978Z,100301.56
2022-09-06T09:48:29.700Z,100312.59
2022-09-06T09:50:57.362Z,100302.78
2022-09-06T09:53:24.925Z,100297.47
2022-09-06T09:55:56.285Z,100302.00
2022-09-06T09:58:33.980Z,100288.53
2022-09-06T10:01:11.392Z,100289.16
2022-09-06T10:09:21.924Z,100278.13
2022-09-06T10:11:54.363Z,100278.50
2022-09-06T10:14:24.916Z,100270.72
2022-09-06T10:16:52.431Z,100272.38
2022-09-06T10:19:38.191Z,100274.56
2022-09-06T10:22:12.628Z,100266.59
2022-09-06T10:24:40.183Z,100256.78
2022-09-06T10:27:12.730Z,100262.34
2022-09-06T10:29:43.108Z,100250.53
2022-09-06T10:32:13.852Z,100248.19
2022-09-06T10:35:07.837Z,100249.53
2022-09-06T10:37:44.587Z,100253.66
2022-09-06T10:40:12.950Z,100246.47
2022-09-06T10:42:43.019Z,100241.38
2022-09-06T10:45:19.426Z,100242.62
2022-09-06T10:47:53.386Z,100239.97
2022-09-06T10:50:20.733Z,100236.50
2022-09-06T10:52:48.701Z,100230.34
2022-09-06T10:55:17.208Z,100240.50
2022-09-06T11:00:37.212Z,100245.88
2022-09-06T11:05:53.261Z,100239.63
2022-09-06T11:11:17.643Z,100246.06
2022-09-06T11:13:45.021Z,100228.81
2022-09-06T11:16:15.828Z,100226.69
2022-09-06T11:18:46.633Z,100222.84
2022-09-06T11:21:17.528Z,100219.81
2022-09-06T11:23:50.663Z,100211.56
2022-09-06T11:26:29.541Z,100214.97
2022-09-06T11:28:57.462Z,100220.97
2022-09-06T11:34:26.565Z,100216.22
2022-09-06T11:37:01.446Z,100199.91
2022-09-06T11:42:36.618Z,100195.81
2022-09-06T11:45:06.849Z,100192.66
2022-09-06T11:47:35.452Z,100199.81
2022-09-06T11:50:21.191Z,100195.59
2022-09-06T11:52:55.233Z,100192.50
2022-09-06T11:55:25.084Z,100179.41
2022-09-06T11:57:54.047Z,100179.63
2022-09-06T12:00:23.954Z,100176.28
2022-09-06T12:02:52.190Z,100183.97
2022-09-06T12:05:25.686Z,100169.41
2022-09-06T12:08:13.168Z,100160.59
2022-09-06T12:10:40.572Z,100166.41
2022-09-06T12:13:29.022Z,100167.22
2022-09-06T12:15:57.046Z,100160.97
2022-09-06T12:18:43.745Z,100159.75
2022-09-06T12:21:11.594Z,100155.00
2022-09-06T12:23:42.648Z,100159.13
2022-09-06T12:26:10.915Z,100146.69
2022-09-06T12:28:49.857Z,100138.34
2022-09-06T12:31:44.056Z,100129.59
2022-09-06T12:34:13.783Z,100129.72
2022-09-06T12:36:48.534Z,100122.13
2022-09-06T12:39:16.300Z,100122.09
2022-09-06T12:41:44.808Z,100112.00
2022-09-06T12:44:12.194Z,100107.94
2022-09-06T12:46:43.944Z,100123.81
2022-09-06T12:49:12.213Z,100107.66
2022-09-06T12:51:40.911Z,100113.03
2022-09-06T12:54:22.080Z,100101.72
2022-09-06T12:56:49.760Z,100099.47
2022-09-06T12:59:17.190Z,100094.16
2022-09-06T13:01:50.147Z,100089.53
2022-09-06T13:04:26.539Z,100086.56
2022-09-06T13:06:54.050Z,100086.16
2022-09-06T13:09:21.705Z,100081.06
2022-09-06T13:11:51.111Z,100081.50
2022-09-06T13:14:20.041Z,100078.03
2022-09-06T13:16:48.591Z,100082.06
2022-09-06T13:19:15.873Z,100077.44
2022-09-06T13:21:43.980Z,100075.31
2022-09-06T13:24:22.138Z,100067.91
2022-09-06T13:26:49.811Z,100067.78
2022-09-06T13:29:17.409Z,100071.56
2022-09-06T13:31:48.182Z,100074.25
2022-09-06T13:34:29.693Z,100060.69
2022-09-06T13:37:08.100Z,100059.62
2022-09-06T13:39:40.211Z,100051.31
2022-09-06T13:42:10.052Z,100046.97
2022-09-06T13:44:41.749Z,100039.25
2022-09-06T13:47:10.670Z,100039.69
2022-09-06T13:49:38.323Z,100037.16
2022-09-06T13:52:05.712Z,100028.53
2022-09-06T13:54:33.302Z,100029.19
2022-09-06T13:57:01.767Z,100034.84
2022-09-06T13:59:30.342Z,100034.13
2022-09-06T14:02:02.080Z,100032.38
2022-09-06T14:04:29.773Z,100024.50
2022-09-06T14:06:57.528Z,100028.53
2022-09-06T14:09:24.821Z,100023.31
2022-09-06T14:11:52.626Z,100026.03
2022-09-06T14:14:20.667Z,100021.34
2022-09-06T14:16:48.211Z,100019.75
2022-09-06T14:19:15.927Z,100024.75
2022-09-06T14:21:43.423Z,100018.19
2022-09-06T14:24:10.770Z,100011.78
2022-09-06T14:26:38.820Z,100014.19
2022-09-06T14:29:06.362Z,100013.44
2022-09-06T14:31:33.956Z,100023.50
2022-09-06T14:34:01.828Z,100016.09
2022-09-06T14:36:30.284Z,100012.12
2022-09-06T14:38:58.343Z,100009.91
2022-09-06T14:41:26.561Z,100011.78
2022-09-06T14:43:55.053Z,100000.81
2022-09-06T14:46:23.743Z,99999.38
2022-09-06T14:49:02.161Z,100005.75
2022-09-06T14:51:30.629Z,100005.19
2022-09-06T14:53:59.684Z,100001.81
2022-09-06T14:56:27.195Z,100012.06
2022-09-06T14:58:57.625Z,100006.16
2022-09-06T15:01:38.009Z,100013.91
2022-09-06T15:04:06.451Z,100020.31
2022-09-06T15:06:34.887Z,100030.25
2022-09-06T15:09:02.591Z,100038.41
2022-09-06T15:11:31.411Z,100055.94
2022-09-06T15:13:59.191Z,100084.91
2022-09-06T15:16:26.977Z,100084.94
2022-09-06T15:18:55.121Z,100108.00
2022-09-06T15:21:23.407Z,100123.28
2022-09-06T15:23:51.905Z,100141.63
2022-09-06T15:26:19.526Z,100138.44
2022-09-06T15:28:47.692Z,100123.16
2022-09-06T15:31:15.710Z,100097.56
2022-09-06T15:33:43.234Z,100071.28
2022-09-06T15:36:12.531Z,100057.03
2022-09-06T15:38:41.733Z,100056.03
2022-09-06T15:41:10.259Z,100051.81
2022-09-06T15:43:41.250Z,100040.63
2022-09-06T15:46:12.825Z,100046.78
2022-09-06T15:48:43.079Z,100047.31
2022-09-06T15:51:11.098Z,100049.88
2022-09-06T15:53:40.237Z,100048.47
2022-09-06T15:56:08.677Z,100048.50
2022-09-06T15:58:36.138Z,100045.81
2022-09-06T16:01:03.926Z,100045.97
2022-09-06T16:03:32.381Z,100047.19
2022-09-06T16:08:52.327Z,100048.72
2022-09-06T16:11:20.314Z,100061.81
2022-09-06T16:13:47.768Z,100073.56
2022-09-06T16:16:15.855Z,100057.53
2022-09-06T16:18:44.330Z,100056.63
2022-09-06T16:21:24.910Z,100065.34
2022-09-06T16:23:53.672Z,100072.38
2022-09-06T16:26:21.935Z,100082.38
2022-09-06T16:28:50.061Z,100090.53
2022-09-06T16:31:18.039Z,100085.94
2022-09-06T16:33:45.892Z,100082.28
2022-09-06T16:36:14.113Z,100084.66
2022-09-06T16:38:41.949Z,100075.53
2022-09-06T16:41:10.949Z,100074.75
2022-09-06T16:43:39.735Z,100070.94
2022-09-06T16:46:07.876Z,100063.53
2022-09-06T16:48:35.387Z,100065.41
2022-09-06T16:51:13.065Z,100072.13
2022-09-06T16:53:41.657Z,100067.16
2022-09-06T16:56:15.115Z,100066.22
2022-09-06T16:58:43.444Z,100061.03
2022-09-06T17:01:20.160Z,100065.34
2022-09-06T17:03:50.893Z,100072.72
2022-09-06T17:06:18.463Z,100074.34
2022-09-06T17:08:45.784Z,100082.88
2022-09-06T17:11:17.837Z,100095.81
2022-09-06T17:13:46.392Z,100098.31
2022-09-06T17:16:32.877Z,100103.69
2022-09-06T17:19:02.333Z,100111.47
2022-09-06T17:21:30.951Z,100113.19
2022-09-06T17:24:05.500Z,100114.50
2022-09-06T17:26:34.803Z,100115.66
2022-09-06T17:29:02.214Z,100111.06
2022-09-06T17:31:30.539Z,100104.53
2022-09-06T17:34:01.877Z,100097.87
2022-09-06T17:36:33.232Z,100095.63
2022-09-06T17:39:05.570Z,100096.91
2022-09-06T17:41:33.934Z,100099.78
2022-09-06T17:44:01.662Z,100100.59
2022-09-06T17:46:29.330Z,100105.00
2022-09-06T17:48:56.825Z,100104.47
2022-09-06T17:51:25.383Z,100097.22
2022-09-06T17:53:55.374Z,100109.69
2022-09-06T17:56:23.192Z,100103.44
2022-09-06T17:58:58.668Z,100106.28
2022-09-06T18:01:29.601Z,100106.28
2022-09-06T18:03:57.692Z,100100.16
2022-09-06T18:06:29.761Z,100106.41
2022-09-06T18:08:59.625Z,100096.22
2022-09-06T18:11:29.403Z,100097.22
2022-09-06T18:13:58.267Z,100092.13
2022-09-06T18:16:27.374Z,100094.06
2022-09-06T18:18:56.014Z,100090.94
2022-09-06T18:21:23.982Z,100094.31
2022-09-06T18:23:52.260Z,100098.41
2022-09-06T18:26:20.502Z,100097.16
2022-09-06T18:28:50.655Z,100109.66
2022-09-06T18:31:19.445Z,100118.87
2022-09-06T18:33:47.200Z,100122.94
2022-09-06T18:36:18.009Z,100141.84
2022-09-06T18:38:48.652Z,100142.28
2022-09-06T18:41:35.686Z,100131.75
2022-09-06T18:44:33.101Z,100122.53
2022-09-06T18:47:05.825Z,100120.88
2022-09-06T18:49:34.476Z,100116.03
2022-09-06T18:52:04.052Z,100114.22
2022-09-06T18:54:41.427Z,100109.78
2022-09-06T18:57:09.450Z,100114.75
2022-09-06T18:59:37.544Z,100110.78
2022-09-06T19:02:06.651Z,100107.75
2022-09-06T19:04:36.468Z,100103.41
2022-09-06T19:07:05.154Z,100103.06
2022-09-06T19:09:33.310Z,100106.97
2022-09-06T19:12:03.783Z,100112.75
2022-09-06T19:14:33.026Z,100119.00
2022-09-06T19:17:02.317Z,100121.06
2022-09-06T19:19:30.112Z,100116.50
2022-09-06T19:21:59.943Z,100117.78
2022-09-06T19:24:27.638Z,100120.31
2022-09-06T19:26:56.703Z,100122.97
2022-09-06T19:29:28.838Z,100119.34
2022-09-06T19:31:56.930Z,100119.84
2022-09-06T19:34:26.306Z,100114.38
2022-09-06T19:36:55.979Z,100114.00
2022-09-06T19:39:23.456Z,100113.75
2022-09-06T19:41:52.533Z,100112.25
2022-09-06T19:44:20.806Z,100106.94
2022-09-06T19:46:48.419Z,100103.00
2022-09-06T19:49:17.505Z,100099.78
2022-09-06T19:51:46.801Z,100097.72
2022-09-06T19:54:16.025Z,100094.44
2022-09-06T19:56:44.385Z,100099.97
2022-09-06T19:59:12.919Z,100096.38
2022-09-06T20:01:40.962Z,100091.09
2022-09-06T20:04:11.238Z,100095.41
2022-09-06T20:06:38.918Z,100086.47
2022-09-06T20:09:07.355Z,100087.34
2022-09-06T20:11:35.675Z,100087.69
2022-09-06T20:14:03.017Z,100091.72
2022-09-06T20:16:30.827Z,100088.75
2022-09-06T20:18:59.131Z,100088.69
2022-09-06T20:21:27.105Z,100092.19
2022-09-06T20:23:55.369Z,100078.91
2022-09-06T20:26:23.935Z,100084.94
2022-09-06T20:28:55.661Z,100086.22
2022-09-06T20:31:23.757Z,100086.38
2022-09-06T20:33:51.260Z,100079.56
2022-09-06T20:36:18.846Z,100087.09
2022-09-06T20:38:46.930Z,100097.22
2022-09-06T20:41:15.695Z,100094.78
2022-09-06T20:43:43.006Z,100092.53
2022-09-06T20:46:15.110Z,100088.34
2022-09-06T20:48:44.836Z,100091.50
2022-09-06T20:51:14.957Z,100090.56
2022-09-06T20:53:42.335Z,100094.28
2022-09-06T20:56:13.712Z,100098.75
2022-09-06T20:58:41.587Z,100094.41
2022-09-06T21:01:10.203Z,100097.53
2022-09-06T21:03:39.183Z,100090.56
2022-09-06T21:06:07.419Z,100095.75
2022-09-06T21:08:36.650Z,100094.44
2022-09-06T21:11:06.272Z,100091.03
2022-09-06T21:13:34.425Z,100088.88
2022-09-06T21:16:02.020Z,100089.13
2022-09-06T21:18:29.877Z,100092.28
2022-09-06T21:20:58.316Z,100092.88
2022-09-06T21:23:26.478Z,100086.53
2022-09-06T21:26:01.836Z,100082.16
2022-09-06T21:28:30.299Z,100085.59
2022-09-06T21:31:01.964Z,100077.41
2022-09-06T21:33:30.424Z,100081.44
2022-09-06T21:36:02.922Z,100078.31
2022-09-06T21:38:31.151Z,100077.59
2022-09-06T21:40:58.702Z,100068.41
2022-09-06T21:43:26.116Z,100074.59
2022-09-06T21:45:53.793Z,100086.84
2022-09-06T21:48:21.125Z,100077.13
2022-09-06T21:50:48.484Z,100071.00
2022-09-06T21:53:16.475Z,100072.97
2022-09-06T21:55:44.288Z,100068.75
2022-09-06T21:58:12.250Z,100067.31
2022-09-06T22:00:40.140Z,100065.88
2022-09-06T22:03:08.302Z,100064.56
2022-09-06T22:05:35.826Z,100069.41
2022-09-06T22:08:03.294Z,100061.63
2022-09-06T22:10:30.939Z,100066.59
2022-09-06T22:12:58.390Z,100070.47
2022-09-06T22:15:25.794Z,100070.84
2022-09-06T22:17:53.408Z,100066.78
2022-09-06T22:20:22.100Z,100067.56
2022-09-06T22:22:49.832Z,100064.63
2022-09-06T22:25:17.398Z,100072.69
2022-09-06T22:27:44.889Z,100063.97
2022-09-06T22:30:12.372Z,100070.78
2022-09-06T22:32:40.321Z,100065.03
2022-09-06T22:35:07.861Z,100066.47
2022-09-06T22:37:35.301Z,100066.25
2022-09-06T22:40:03.216Z,100062.47
2022-09-06T22:42:30.723Z,100067.56
2022-09-06T22:44:58.077Z,100061.47
2022-09-06T22:47:25.740Z,100069.78
2022-09-06T22:49:53.128Z,100068.09
2022-09-06T22:52:20.518Z,100061.59
2022-09-06T22:54:48.388Z,100062.66
2022-09-06T22:57:16.004Z,100059.19
2022-09-06T22:59:43.238Z,100061.53
2022-09-06T23:02:10.887Z,100059.81
2022-09-06T23:04:38.335Z,100053.47
2022-09-06T23:07:06.048Z,100054.31
2022-09-06T23:09:33.866Z,100055.97
2022-09-06T23:12:01.360Z,100055.72
2022-09-06T23:14:29.123Z,100056.53
2022-09-06T23:16:56.981Z,100056.94
2022-09-06T23:19:25.040Z,100051.34
2022-09-06T23:21:52.412Z,100047.91
2022-09-06T23:24:19.963Z,100046.72
2022-09-06T23:26:47.324Z,100056.06
2022-09-06T23:29:15.122Z,100056.47
2022-09-06T23:31:42.863Z,100057.28
2022-09-06T23:34:10.203Z,100050.81
2022-09-06T23:36:37.530Z,100050.44
2022-09-06T23:39:07.138Z,100054.37
2022-09-06T23:41:34.670Z,100040.34
2022-09-06T23:44:02.188Z,100047.09
2022-09-06T23:46:29.897Z,100050.25
2022-09-06T23:48:57.298Z,100042.38
2022-09-06T23:51:25.066Z,100048.78
2022-09-06T23:53:52.806Z,100046.38
2022-09-06T23:56:20.991Z,100043.47
2022-09-06T23:58:48.518Z,100044.91
